Time;durP1;ratioP1;P1;durP2;ratioP2;P2;SDS_P1;SDS_P2;PMS_P1;PMS_P2;Temp;Humidity;BMP_temperature;BMP_pressure;BME280_temperature;BME280_humidity;BME280_pressure;Samples;Min_cycle;Max_cycle;Signal;HPM_P1;HPM_P2
2022/04/20 00:04:45;;;;;;;;;;;;;;;;;;20912813;28;19920;-69
2022/04/20 00:14:46;;;;;;;;;;;;;;;;;;20912247;28;19921;-69
2022/04/20 00:24:48;;;;;;;;;;;;;;;;;;20910990;28;20372;-68
2022/04/20 00:34:49;;;;;;;;;;;;;;;;;;20913074;28;20062;-69
2022/04/20 00:44:51;;;;;;;;;;;;;;;;;;20912157;28;20405;-69
2022/04/20 00:54:53;;;;;;;;;;;;;;;;;;20920478;28;19920;-70
2022/04/20 01:04:54;;;;;;;;;;;;;;;;;;20931650;28;19920;-69
2022/04/20 01:15:00;;;;;;;;;;;;;;;;;;20931771;28;19921;-69
2022/04/20 01:25:02;;;;;;;;;;;;;;;;;;20930225;28;19975;-71
2022/04/20 01:35:04;;;;;;;;;;;;;;;;;;20927736;28;19924;-68
2022/04/20 01:45:06;;;;;;;;;;;;;;;;;;20928890;28;19924;-69
2022/04/20 01:55:11;;;;;;;;;;;;;;;;;;20926507;28;20310;-69
2022/04/20 02:05:13;;;;;;;;;;;;;;;;;;20928648;28;19928;-71
2022/04/20 02:15:15;;;;;;;;;;;;;;;;;;20922686;28;20003;-69
2022/04/20 02:25:16;;;;;;;;;;;;;;;;;;20920553;28;19925;-72
2022/04/20 02:35:18;;;;;;;;;;;;;;;;;;20924363;28;19920;-72
2022/04/20 02:45:20;;;;;;;;;;;;;;;;;;20926953;28;19920;-72
2022/04/20 02:55:21;;;;;;;;;;;;;;;;;;20922624;28;19952;-68
2022/04/20 03:05:23;;;;;;;;;;;;;;;;;;20919106;28;20000;-68
2022/04/20 03:15:31;;;;;;;;;;;;;;;;;;20921535;28;19920;-69
2022/04/20 03:25:36;;;;;;;;;;;;;;;;;;20918533;28;19978;-70
2022/04/20 03:35:57;;;;;;;;;;;;;;;;;;20929892;28;19928;-67
2022/04/20 03:46:19;;;;;;;;;;;;;;;;;;20929163;28;20349;-65
2022/04/20 04:07:18;;;;;;;;;;;;;;;;;;20929461;28;19927;-70
2022/04/20 04:17:39;;;;;;;;;;;;;;;;;;20922140;28;19929;-71
2022/04/20 04:27:54;;;;;;;;;;;;;;;;;;20920664;28;19943;-69
2022/04/20 04:38:02;;;;;;;;;;;;;;;;;;20930992;28;19921;-68
2022/04/20 04:58:36;;;;;;;;;;;;;;;;;;20935973;28;19949;-69
2022/04/20 05:08:39;;;;;;;;;;;;;;;;;;20931773;28;20270;-74
2022/04/20 05:18:41;;;;;;;;;;;;;;;;;;20931320;28;20011;-68
2022/04/20 05:28:43;;;;;;;;;;;;;;;;;;20927388;28;19920;-71
2022/04/20 05:49:05;;;;;;;;;;;;;;;;;;20927200;28;19920;-69
2022/04/20 05:59:10;;;;;;;;;;;;;;;;;;20926110;28;20011;-72
2022/04/20 06:09:12;;;;;;;;;;;;;;;;;;20926473;28;19920;-71
2022/04/20 06:19:14;;;;;;;;;;;;;;;;;;20924757;28;19921;-68
2022/04/20 06:29:17;;;;;;;;;;;;;;;;;;20925228;28;19947;-69
2022/04/20 06:39:19;;;;;;;;;;;;;;;;;;20923026;28;19920;-72
2022/04/20 06:49:21;;;;;;;;;;;;;;;;;;20925499;28;19921;-70
2022/04/20 06:59:24;;;;;;;;;;;;;;;;;;20931601;28;19967;-69
2022/04/20 07:09:26;;;;;;;;;;;;;;;;;;20931329;28;19925;-67
2022/04/20 07:19:29;;;;;;;;;;;;;;;;;;20949342;28;19927;-68
2022/04/20 07:29:31;;;;;;;;;;;;;;;;;;20938973;28;19967;-67
2022/04/20 07:39:33;;;;;;;;;;;;;;;;;;20927681;28;19927;-68
2022/04/20 07:59:56;;;;;;;;;;;;;;;;;;20924352;28;20262;-68
2022/04/20 08:09:58;;;;;;;;;;;;;;;;;;20924294;28;19928;-69
2022/04/20 08:20:01;;;;;;;;;;;;;;;;;;20916681;28;19921;-70
2022/04/20 08:30:02;;;;;;;;;;;;;;;;;;20920368;28;19952;-71
2022/04/20 08:40:04;;;;;;;;;;;;;;;;;;20920838;28;19921;-70
2022/04/20 08:50:06;;;;;;;;;;;;;;;;;;20919913;28;19972;-68
2022/04/20 09:00:09;;;;;;;;;;;;;;;;;;20916295;28;19924;-66
2022/04/20 09:10:11;;;;;;;;;;;;;;;;;;20999482;28;20018;-62
2022/04/20 09:20:14;;;;;;;;;;;;;;;;;;20974400;28;19947;-73
2022/04/20 09:30:16;;;;;;;;;;;;;;;;;;20999861;28;19946;-63
2022/04/20 09:40:18;;;;;;;;;;;;;;;;;;21009447;28;20386;-63
2022/04/20 09:50:19;;;;;;;;;;;;;;;;;;21006937;28;19927;-64
2022/04/20 10:00:23;;;;;;;;;;;;;;;;;;21008379;28;19920;-69
2022/04/20 10:10:25;;;;;;;;;;;;;;;;;;21008847;28;19920;-64
2022/04/20 10:20:28;;;;;;;;;;;;;;;;;;20970795;28;19921;-68
2022/04/20 10:30:30;;;;;;;;;;;;;;;;;;20996766;28;20065;-68
2022/04/20 10:40:33;;;;;;;;;;;;;;;;;;21004478;28;19927;-70
2022/04/20 10:50:36;;;;;;;;;;;;;;;;;;21006075;28;19974;-77
2022/04/20 11:00:38;;;;;;;;;;;;;;;;;;20987496;28;19920;-71
2022/04/20 11:10:40;;;;;;;;;;;;;;;;;;21000742;28;19920;-63
2022/04/20 11:20:42;;;;;;;;;;;;;;;;;;20999590;28;19920;-62
2022/04/20 11:30:44;;;;;;;;;;;;;;;;;;20997905;28;19920;-70
2022/04/20 11:40:46;;;;;;;;;;;;;;;;;;20996903;28;19931;-75
2022/04/20 11:50:48;;;;;;;;;;;;;;;;;;20996932;28;19921;-73
2022/04/20 12:00:53;;;;;;;;;;;;;;;;;;20948748;28;20362;-63
2022/04/20 12:10:54;;;;;;;;;;;;;;;;;;20913792;28;19927;-69
2022/04/20 12:20:59;;;;;;;;;;;;;;;;;;20916406;28;19921;-69
2022/04/20 12:31:01;;;;;;;;;;;;;;;;;;20918165;28;19920;-63
2022/04/20 12:41:03;;;;;;;;;;;;;;;;;;20910380;28;20011;-68
2022/04/20 12:51:05;;;;;;;;;;;;;;;;;;20917357;28;20264;-64
2022/04/20 13:11:45;;;;;;;;;;;;;;;;;;20752719;28;19921;-64
2022/04/20 13:21:47;;;;;;;;;;;;;;;;;;20752140;28;20020;-63
2022/04/20 13:31:49;;;;;;;;;;;;;;;;;;20750877;28;19921;-67
2022/04/20 13:41:52;;;;;;;;;;;;;;;;;;20835908;28;19928;-67
2022/04/20 13:51:55;;;;;;;;;;;;;;;;;;20924222;28;20298;-67
2022/04/20 14:01:57;;;;;;;;;;;;;;;;;;20921639;28;19924;-68
2022/04/20 14:11:59;;;;;;;;;;;;;;;;;;20921433;28;19990;-63
2022/04/20 14:22:01;;;;;;;;;;;;;;;;;;20920862;28;19921;-68
2022/04/20 14:32:12;;;;;;;;;;;;;;;;;;20918830;28;19920;-67
2022/04/20 14:42:15;;;;;;;;;;;;;;;;;;20918513;28;19921;-64
2022/04/20 14:52:17;;;;;;;;;;;;;;;;;;20918671;28;19966;-64
2022/04/20 15:02:19;;;;;;;;;;;;;;;;;;20916375;28;19928;-67
2022/04/20 15:12:21;;;;;;;;;;;;;;;;;;20916990;28;20027;-65
2022/04/20 15:22:23;;;;;;;;;;;;;;;;;;20916182;28;19964;-67
2022/04/20 15:32:26;;;;;;;;;;;;;;;;;;20916421;28;20363;-65
2022/04/20 15:42:27;;;;;;;;;;;;;;;;;;20914838;28;19920;-66
2022/04/20 15:52:29;;;;;;;;;;;;;;;;;;20941491;28;19920;-60
2022/04/20 16:02:31;;;;;;;;;;;;;;;;;;20952651;28;19956;-62
2022/04/20 16:12:36;;;;;;;;;;;;;;;;;;20977122;28;19920;-62
2022/04/20 16:22:38;;;;;;;;;;;;;;;;;;20996816;28;19941;-72
2022/04/20 16:32:40;;;;;;;;;;;;;;;;;;20997579;28;20019;-73
2022/04/20 16:42:43;;;;;;;;;;;;;;;;;;21014447;28;19920;-73
2022/04/20 16:52:45;;;;;;;;;;;;;;;;;;21014300;28;19970;-72
2022/04/20 17:02:47;;;;;;;;;;;;;;;;;;21009117;28;19974;-73
2022/04/20 17:12:50;;;;;;;;;;;;;;;;;;21008391;28;19931;-71
2022/04/20 17:33:12;;;;;;;;;;;;;;;;;;21007038;28;19990;-71
2022/04/20 17:43:16;;;;;;;;;;;;;;;;;;20988478;28;19927;-71
2022/04/20 17:53:18;;;;;;;;;;;;;;;;;;21005809;28;19981;-72
2022/04/20 18:03:20;;;;;;;;;;;;;;;;;;21004788;28;19920;-72
2022/04/20 18:13:22;;;;;;;;;;;;;;;;;;21005496;28;20367;-71
2022/04/20 18:23:23;;;;;;;;;;;;;;;;;;21003407;28;19925;-72
2022/04/20 18:33:25;;;;;;;;;;;;;;;;;;21003675;28;19920;-73
2022/04/20 18:43:27;;;;;;;;;;;;;;;;;;21002094;28;19957;-71
2022/04/20 19:03:52;;;;;;;;;;;;;;;;;;21000316;28;19932;-72
2022/04/20 19:13:54;;;;;;;;;;;;;;;;;;21000770;28;19927;-72
2022/04/20 19:23:56;;;;;;;;;;;;;;;;;;20982450;28;19920;-71
2022/04/20 19:33:57;;;;;;;;;;;;;;;;;;20999006;28;19926;-71
2022/04/20 19:43:59;;;;;;;;;;;;;;;;;;20997994;28;19926;-73
2022/04/20 19:54:01;;;;;;;;;;;;;;;;;;21027600;28;19984;-71
2022/04/20 20:04:03;;;;;;;;;;;;;;;;;;21035096;28;20358;-72
2022/04/20 20:14:05;;;;;;;;;;;;;;;;;;21002994;28;20405;-72
2022/04/20 20:34:28;;;;;;;;;;;;;;;;;;20995788;28;19920;-71
2022/04/20 20:44:33;;;;;;;;;;;;;;;;;;20994519;28;19924;-72
2022/04/20 20:54:35;;;;;;;;;;;;;;;;;;20977074;28;19927;-71
2022/04/20 21:04:36;;;;;;;;;;;;;;;;;;20994195;28;19927;-74
2022/04/20 21:14:38;;;;;;;;;;;;;;;;;;21009034;28;19920;-71
2022/04/20 21:24:40;;;;;;;;;;;;;;;;;;21000875;28;19971;-71
2022/04/20 21:34:43;;;;;;;;;;;;;;;;;;21008425;28;19920;-71
2022/04/20 21:44:45;;;;;;;;;;;;;;;;;;21007403;28;20000;-71
2022/04/20 21:54:47;;;;;;;;;;;;;;;;;;21006870;28;19952;-71
2022/04/20 22:15:10;;;;;;;;;;;;;;;;;;21010691;28;20315;-72
2022/04/20 22:25:12;;;;;;;;;;;;;;;;;;21005225;28;19921;-73
2022/04/20 22:35:13;;;;;;;;;;;;;;;;;;21002228;28;19978;-71
2022/04/20 22:45:16;;;;;;;;;;;;;;;;;;21002355;28;19985;-71
2022/04/20 22:55:18;;;;;;;;;;;;;;;;;;21001882;28;19967;-72
2022/04/20 23:05:19;;;;;;;;;;;;;;;;;;21001233;28;20007;-72
2022/04/20 23:15:21;;;;;;;;;;;;;;;;;;21000498;28;19927;-70
2022/04/20 23:35:43;;;;;;;;;;;;;;;;;;20998526;28;20385;-71
2022/04/20 23:45:45;;;;;;;;;;;;;;;;;;20997046;28;19920;-72
2022/04/20 23:55:47;;;;;;;;;;;;;;;;;;20997405;28;20032;-71
